sensor_id;sensor_type;location;lat;lon;timestamp;temperature;humidity
23289;DHT22;11813;50.834;4.280;2023-08-06T00:01:40;16.60;99.90
23289;DHT22;11813;50.834;4.280;2023-08-06T00:04:06;16.70;99.90
23289;DHT22;11813;50.834;4.280;2023-08-06T00:06:31;16.80;99.90
23289;DHT22;11813;50.834;4.280;2023-08-06T00:08:57;16.70;99.90
23289;DHT22;11813;50.834;4.280;2023-08-06T00:11:22;16.70;99.90
23289;DHT22;11813;50.834;4.280;2023-08-06T00:13:48;16.60;99.90
23289;DHT22;11813;50.834;4.280;2023-08-06T00:16:14;16.70;99.90
23289;DHT22;11813;50.834;4.280;2023-08-06T00:18:40;16.70;99.90
23289;DHT22;11813;50.834;4.280;2023-08-06T00:21:06;16.70;99.90
23289;DHT22;11813;50.834;4.280;2023-08-06T00:23:32;16.70;99.90
23289;DHT22;11813;50.834;4.280;2023-08-06T00:25:58;16.70;99.90
23289;DHT22;11813;50.834;4.280;2023-08-06T00:28:23;16.80;99.90
23289;DHT22;11813;50.834;4.280;2023-08-06T00:30:55;16.90;99.90
23289;DHT22;11813;50.834;4.280;2023-08-06T00:33:22;17.00;99.90
23289;DHT22;11813;50.834;4.280;2023-08-06T00:35:48;17.00;99.90
23289;DHT22;11813;50.834;4.280;2023-08-06T00:38:14;16.90;99.90
23289;DHT22;11813;50.834;4.280;2023-08-06T00:40:39;16.90;99.90
23289;DHT22;11813;50.834;4.280;2023-08-06T00:43:05;16.90;99.90
23289;DHT22;11813;50.834;4.280;2023-08-06T00:45:34;16.90;99.90
23289;DHT22;11813;50.834;4.280;2023-08-06T00:48:01;17.10;99.90
23289;DHT22;11813;50.834;4.280;2023-08-06T00:50:27;17.10;99.90
23289;DHT22;11813;50.834;4.280;2023-08-06T00:52:53;17.10;99.90
23289;DHT22;11813;50.834;4.280;2023-08-06T00:55:19;17.10;99.90
23289;DHT22;11813;50.834;4.280;2023-08-06T00:57:45;17.20;99.90
23289;DHT22;11813;50.834;4.280;2023-08-06T01:00:11;17.10;99.90
23289;DHT22;11813;50.834;4.280;2023-08-06T01:02:37;17.10;99.90
23289;DHT22;11813;50.834;4.280;2023-08-06T01:05:03;17.10;99.90
23289;DHT22;11813;50.834;4.280;2023-08-06T01:15:24;17.30;99.90
23289;DHT22;11813;50.834;4.280;2023-08-06T01:17:51;17.30;99.90
23289;DHT22;11813;50.834;4.280;2023-08-06T01:20:18;17.20;99.90
23289;DHT22;11813;50.834;4.280;2023-08-06T01:22:43;17.20;99.90
23289;DHT22;11813;50.834;4.280;2023-08-06T01:25:09;17.10;99.90
23289;DHT22;11813;50.834;4.280;2023-08-06T01:27:46;17.10;99.90
23289;DHT22;11813;50.834;4.280;2023-08-06T01:30:20;17.10;99.90
23289;DHT22;11813;50.834;4.280;2023-08-06T01:32:50;17.00;99.90
23289;DHT22;11813;50.834;4.280;2023-08-06T01:35:19;17.10;99.90
23289;DHT22;11813;50.834;4.280;2023-08-06T01:37:46;17.10;99.90
23289;DHT22;11813;50.834;4.280;2023-08-06T01:40:13;17.20;99.90
23289;DHT22;11813;50.834;4.280;2023-08-06T01:42:39;17.30;99.90
23289;DHT22;11813;50.834;4.280;2023-08-06T01:45:06;17.30;99.90
23289;DHT22;11813;50.834;4.280;2023-08-06T01:47:32;17.30;99.90
23289;DHT22;11813;50.834;4.280;2023-08-06T01:49:58;17.20;99.90
23289;DHT22;11813;50.834;4.280;2023-08-06T01:52:24;17.10;99.90
23289;DHT22;11813;50.834;4.280;2023-08-06T01:54:49;17.10;99.90
23289;DHT22;11813;50.834;4.280;2023-08-06T01:57:15;17.00;99.90
23289;DHT22;11813;50.834;4.280;2023-08-06T01:59:41;16.90;99.90
23289;DHT22;11813;50.834;4.280;2023-08-06T02:02:06;16.90;99.90
23289;DHT22;11813;50.834;4.280;2023-08-06T02:04:32;16.90;99.90
23289;DHT22;11813;50.834;4.280;2023-08-06T02:06:58;16.90;99.90
23289;DHT22;11813;50.834;4.280;2023-08-06T02:09:23;16.60;99.90
23289;DHT22;11813;50.834;4.280;2023-08-06T02:11:49;16.60;99.90
23289;DHT22;11813;50.834;4.280;2023-08-06T02:14:14;16.60;99.90
23289;DHT22;11813;50.834;4.280;2023-08-06T02:16:40;16.50;99.90
23289;DHT22;11813;50.834;4.280;2023-08-06T02:19:05;16.60;99.90
23289;DHT22;11813;50.834;4.280;2023-08-06T02:21:31;16.60;99.90
23289;DHT22;11813;50.834;4.280;2023-08-06T02:23:57;16.60;99.90
23289;DHT22;11813;50.834;4.280;2023-08-06T02:26:23;16.50;99.90
23289;DHT22;11813;50.834;4.280;2023-08-06T02:28:48;16.50;99.90
23289;DHT22;11813;50.834;4.280;2023-08-06T02:31:14;16.50;99.90
23289;DHT22;11813;50.834;4.280;2023-08-06T02:33:39;16.40;99.90
23289;DHT22;11813;50.834;4.280;2023-08-06T02:36:05;16.40;99.90
23289;DHT22;11813;50.834;4.280;2023-08-06T02:38:32;16.60;99.90
23289;DHT22;11813;50.834;4.280;2023-08-06T02:40:57;16.60;99.90
23289;DHT22;11813;50.834;4.280;2023-08-06T02:43:23;16.40;99.90
23289;DHT22;11813;50.834;4.280;2023-08-06T02:45:49;16.40;99.90
23289;DHT22;11813;50.834;4.280;2023-08-06T02:48:14;16.40;99.90
23289;DHT22;11813;50.834;4.280;2023-08-06T02:50:41;16.30;99.90
23289;DHT22;11813;50.834;4.280;2023-08-06T02:53:08;16.20;99.90
23289;DHT22;11813;50.834;4.280;2023-08-06T02:55:34;16.20;99.90
23289;DHT22;11813;50.834;4.280;2023-08-06T02:58:01;16.20;99.90
23289;DHT22;11813;50.834;4.280;2023-08-06T03:00:27;16.10;99.90
23289;DHT22;11813;50.834;4.280;2023-08-06T03:02:53;16.00;99.90
23289;DHT22;11813;50.834;4.280;2023-08-06T03:05:19;16.00;99.90
23289;DHT22;11813;50.834;4.280;2023-08-06T03:07:45;16.00;99.90
23289;DHT22;11813;50.834;4.280;2023-08-06T03:10:10;16.10;99.90
23289;DHT22;11813;50.834;4.280;2023-08-06T03:12:36;16.10;99.90
23289;DHT22;11813;50.834;4.280;2023-08-06T03:15:02;16.00;99.90
23289;DHT22;11813;50.834;4.280;2023-08-06T03:17:28;16.10;99.90
23289;DHT22;11813;50.834;4.280;2023-08-06T03:19:53;16.10;99.90
23289;DHT22;11813;50.834;4.280;2023-08-06T03:22:19;16.20;99.90
23289;DHT22;11813;50.834;4.280;2023-08-06T03:24:45;16.30;99.90
23289;DHT22;11813;50.834;4.280;2023-08-06T03:27:10;16.20;99.90
23289;DHT22;11813;50.834;4.280;2023-08-06T03:29:36;16.10;99.90
23289;DHT22;11813;50.834;4.280;2023-08-06T03:32:01;16.10;99.90
23289;DHT22;11813;50.834;4.280;2023-08-06T03:34:27;16.10;99.90
23289;DHT22;11813;50.834;4.280;2023-08-06T03:36:53;16.00;99.90
23289;DHT22;11813;50.834;4.280;2023-08-06T03:39:18;15.90;99.90
23289;DHT22;11813;50.834;4.280;2023-08-06T03:41:44;15.80;99.90
23289;DHT22;11813;50.834;4.280;2023-08-06T03:44:10;15.70;99.90
23289;DHT22;11813;50.834;4.280;2023-08-06T03:46:35;15.60;99.90
23289;DHT22;11813;50.834;4.280;2023-08-06T03:49:01;15.50;99.90
23289;DHT22;11813;50.834;4.280;2023-08-06T03:51:26;15.30;99.90
23289;DHT22;11813;50.834;4.280;2023-08-06T03:53:52;15.20;99.90
23289;DHT22;11813;50.834;4.280;2023-08-06T03:56:18;15.20;99.90
23289;DHT22;11813;50.834;4.280;2023-08-06T03:58:43;15.20;99.90
23289;DHT22;11813;50.834;4.280;2023-08-06T04:01:09;15.10;99.90
23289;DHT22;11813;50.834;4.280;2023-08-06T04:03:34;15.10;99.90
23289;DHT22;11813;50.834;4.280;2023-08-06T04:06:04;15.00;99.90
23289;DHT22;11813;50.834;4.280;2023-08-06T04:08:30;15.00;99.90
23289;DHT22;11813;50.834;4.280;2023-08-06T04:10:55;15.00;99.90
23289;DHT22;11813;50.834;4.280;2023-08-06T04:13:21;15.00;99.90
23289;DHT22;11813;50.834;4.280;2023-08-06T04:15:47;15.00;99.90
23289;DHT22;11813;50.834;4.280;2023-08-06T04:18:13;15.00;99.90
23289;DHT22;11813;50.834;4.280;2023-08-06T04:20:48;15.10;99.90
23289;DHT22;11813;50.834;4.280;2023-08-06T04:23:15;15.00;99.90
23289;DHT22;11813;50.834;4.280;2023-08-06T04:25:40;15.00;99.90
23289;DHT22;11813;50.834;4.280;2023-08-06T04:28:07;15.00;99.90
23289;DHT22;11813;50.834;4.280;2023-08-06T04:30:32;14.90;99.90
23289;DHT22;11813;50.834;4.280;2023-08-06T04:32:58;14.90;99.90
23289;DHT22;11813;50.834;4.280;2023-08-06T04:35:24;14.90;99.90
23289;DHT22;11813;50.834;4.280;2023-08-06T04:37:49;14.90;99.90
23289;DHT22;11813;50.834;4.280;2023-08-06T04:40:15;15.00;99.90
23289;DHT22;11813;50.834;4.280;2023-08-06T04:42:41;14.90;99.90
23289;DHT22;11813;50.834;4.280;2023-08-06T04:45:07;15.00;99.90
23289;DHT22;11813;50.834;4.280;2023-08-06T04:47:33;14.90;99.90
23289;DHT22;11813;50.834;4.280;2023-08-06T04:49:58;15.00;99.90
23289;DHT22;11813;50.834;4.280;2023-08-06T04:52:24;14.90;99.90
23289;DHT22;11813;50.834;4.280;2023-08-06T04:54:53;14.90;99.90
23289;DHT22;11813;50.834;4.280;2023-08-06T04:57:18;14.90;99.90
23289;DHT22;11813;50.834;4.280;2023-08-06T04:59:44;14.90;99.90
23289;DHT22;11813;50.834;4.280;2023-08-06T05:02:09;14.80;99.90
23289;DHT22;11813;50.834;4.280;2023-08-06T05:04:35;14.90;99.90
23289;DHT22;11813;50.834;4.280;2023-08-06T05:07:01;14.90;99.90
23289;DHT22;11813;50.834;4.280;2023-08-06T05:09:26;14.80;99.90
23289;DHT22;11813;50.834;4.280;2023-08-06T05:11:52;14.90;99.90
23289;DHT22;11813;50.834;4.280;2023-08-06T05:14:17;15.00;99.90
23289;DHT22;11813;50.834;4.280;2023-08-06T05:16:43;14.90;99.90
23289;DHT22;11813;50.834;4.280;2023-08-06T05:19:09;14.90;99.90
23289;DHT22;11813;50.834;4.280;2023-08-06T05:21:34;15.00;99.90
23289;DHT22;11813;50.834;4.280;2023-08-06T05:24:00;15.00;99.90
23289;DHT22;11813;50.834;4.280;2023-08-06T05:26:25;15.10;99.90
23289;DHT22;11813;50.834;4.280;2023-08-06T05:28:51;15.10;99.90
23289;DHT22;11813;50.834;4.280;2023-08-06T05:31:17;15.00;99.90
23289;DHT22;11813;50.834;4.280;2023-08-06T05:33:42;15.10;99.90
23289;DHT22;11813;50.834;4.280;2023-08-06T05:36:08;15.10;99.90
23289;DHT22;11813;50.834;4.280;2023-08-06T05:38:34;15.10;99.90
23289;DHT22;11813;50.834;4.280;2023-08-06T05:40:59;15.10;99.90
23289;DHT22;11813;50.834;4.280;2023-08-06T05:43:25;15.10;99.90
23289;DHT22;11813;50.834;4.280;2023-08-06T05:45:50;15.10;99.90
23289;DHT22;11813;50.834;4.280;2023-08-06T05:48:16;15.20;99.90
23289;DHT22;11813;50.834;4.280;2023-08-06T05:50:42;15.10;99.90
23289;DHT22;11813;50.834;4.280;2023-08-06T05:53:07;15.10;99.90
23289;DHT22;11813;50.834;4.280;2023-08-06T05:55:34;15.10;99.90
23289;DHT22;11813;50.834;4.280;2023-08-06T05:57:59;15.00;99.90
23289;DHT22;11813;50.834;4.280;2023-08-06T06:00:25;15.10;99.90
23289;DHT22;11813;50.834;4.280;2023-08-06T06:02:51;15.00;99.90
23289;DHT22;11813;50.834;4.280;2023-08-06T06:05:16;14.90;99.90
23289;DHT22;11813;50.834;4.280;2023-08-06T06:07:42;14.90;99.90
23289;DHT22;11813;50.834;4.280;2023-08-06T06:10:08;14.90;99.90
23289;DHT22;11813;50.834;4.280;2023-08-06T06:12:34;14.90;99.90
23289;DHT22;11813;50.834;4.280;2023-08-06T06:14:59;15.00;99.90
23289;DHT22;11813;50.834;4.280;2023-08-06T06:17:26;15.00;99.90
23289;DHT22;11813;50.834;4.280;2023-08-06T06:19:52;15.00;99.90
23289;DHT22;11813;50.834;4.280;2023-08-06T06:22:18;15.10;99.90
23289;DHT22;11813;50.834;4.280;2023-08-06T06:24:43;15.10;99.90
23289;DHT22;11813;50.834;4.280;2023-08-06T06:27:09;15.10;99.90
23289;DHT22;11813;50.834;4.280;2023-08-06T06:29:35;15.20;99.90
23289;DHT22;11813;50.834;4.280;2023-08-06T06:32:00;15.10;99.90
23289;DHT22;11813;50.834;4.280;2023-08-06T06:34:26;15.10;99.90
23289;DHT22;11813;50.834;4.280;2023-08-06T06:36:52;15.10;99.90
23289;DHT22;11813;50.834;4.280;2023-08-06T06:39:18;15.20;99.90
23289;DHT22;11813;50.834;4.280;2023-08-06T06:41:43;15.30;99.90
23289;DHT22;11813;50.834;4.280;2023-08-06T06:44:09;15.40;99.90
23289;DHT22;11813;50.834;4.280;2023-08-06T06:46:35;15.40;99.90
23289;DHT22;11813;50.834;4.280;2023-08-06T06:49:01;15.50;99.90
23289;DHT22;11813;50.834;4.280;2023-08-06T06:51:27;15.30;99.90
23289;DHT22;11813;50.834;4.280;2023-08-06T06:53:52;15.20;99.90
23289;DHT22;11813;50.834;4.280;2023-08-06T06:56:18;15.20;99.90
23289;DHT22;11813;50.834;4.280;2023-08-06T06:58:44;15.10;99.90
23289;DHT22;11813;50.834;4.280;2023-08-06T07:01:09;15.00;99.90
23289;DHT22;11813;50.834;4.280;2023-08-06T07:03:37;14.90;99.90
23289;DHT22;11813;50.834;4.280;2023-08-06T07:06:03;15.00;99.90
23289;DHT22;11813;50.834;4.280;2023-08-06T07:08:29;15.00;99.90
23289;DHT22;11813;50.834;4.280;2023-08-06T07:11:04;15.00;99.90
23289;DHT22;11813;50.834;4.280;2023-08-06T07:13:31;15.00;99.90
23289;DHT22;11813;50.834;4.280;2023-08-06T07:15:57;15.00;99.90
23289;DHT22;11813;50.834;4.280;2023-08-06T07:18:23;15.10;99.90
23289;DHT22;11813;50.834;4.280;2023-08-06T07:20:53;15.30;99.90
23289;DHT22;11813;50.834;4.280;2023-08-06T07:23:24;15.30;99.90
23289;DHT22;11813;50.834;4.280;2023-08-06T07:25:50;15.30;99.90
23289;DHT22;11813;50.834;4.280;2023-08-06T07:28:16;15.40;99.90
23289;DHT22;11813;50.834;4.280;2023-08-06T07:30:43;15.20;99.90
23289;DHT22;11813;50.834;4.280;2023-08-06T07:33:09;15.20;99.90
23289;DHT22;11813;50.834;4.280;2023-08-06T07:35:36;15.20;99.90
23289;DHT22;11813;50.834;4.280;2023-08-06T07:38:02;15.20;99.90
23289;DHT22;11813;50.834;4.280;2023-08-06T07:40:28;15.20;99.90
23289;DHT22;11813;50.834;4.280;2023-08-06T07:42:54;15.40;99.90
23289;DHT22;11813;50.834;4.280;2023-08-06T07:45:20;15.30;99.90
23289;DHT22;11813;50.834;4.280;2023-08-06T07:47:46;15.30;99.90
23289;DHT22;11813;50.834;4.280;2023-08-06T07:50:12;15.30;99.90
23289;DHT22;11813;50.834;4.280;2023-08-06T07:52:38;15.40;99.90
23289;DHT22;11813;50.834;4.280;2023-08-06T07:55:04;15.50;99.90
23289;DHT22;11813;50.834;4.280;2023-08-06T07:57:33;15.50;99.90
23289;DHT22;11813;50.834;4.280;2023-08-06T08:00:00;15.40;99.90
23289;DHT22;11813;50.834;4.280;2023-08-06T08:02:26;15.50;99.90
23289;DHT22;11813;50.834;4.280;2023-08-06T08:04:52;15.60;99.90
23289;DHT22;11813;50.834;4.280;2023-08-06T08:07:18;15.70;99.90
23289;DHT22;11813;50.834;4.280;2023-08-06T08:09:44;15.80;99.90
23289;DHT22;11813;50.834;4.280;2023-08-06T08:12:09;15.80;99.90
23289;DHT22;11813;50.834;4.280;2023-08-06T08:14:35;15.90;99.90
23289;DHT22;11813;50.834;4.280;2023-08-06T08:17:03;15.80;99.90
23289;DHT22;11813;50.834;4.280;2023-08-06T08:19:29;15.70;99.90
23289;DHT22;11813;50.834;4.280;2023-08-06T08:21:55;15.50;99.90
23289;DHT22;11813;50.834;4.280;2023-08-06T08:24:21;15.50;99.90
23289;DHT22;11813;50.834;4.280;2023-08-06T08:26:52;15.50;99.90
23289;DHT22;11813;50.834;4.280;2023-08-06T08:29:19;15.30;99.90
23289;DHT22;11813;50.834;4.280;2023-08-06T08:31:45;15.20;99.90
23289;DHT22;11813;50.834;4.280;2023-08-06T08:34:11;15.20;99.90
23289;DHT22;11813;50.834;4.280;2023-08-06T08:36:37;15.30;99.90
23289;DHT22;11813;50.834;4.280;2023-08-06T08:39:02;15.30;99.90
23289;DHT22;11813;50.834;4.280;2023-08-06T08:41:30;15.30;99.90
23289;DHT22;11813;50.834;4.280;2023-08-06T08:43:58;15.40;99.90
23289;DHT22;11813;50.834;4.280;2023-08-06T08:46:26;15.50;99.90
23289;DHT22;11813;50.834;4.280;2023-08-06T08:48:55;15.50;99.90
23289;DHT22;11813;50.834;4.280;2023-08-06T08:51:23;15.60;99.90
23289;DHT22;11813;50.834;4.280;2023-08-06T08:53:49;15.50;99.90
23289;DHT22;11813;50.834;4.280;2023-08-06T08:56:19;15.40;99.90
23289;DHT22;11813;50.834;4.280;2023-08-06T08:58:45;15.60;99.90
23289;DHT22;11813;50.834;4.280;2023-08-06T09:01:11;15.60;99.90
23289;DHT22;11813;50.834;4.280;2023-08-06T09:03:37;15.50;99.90
23289;DHT22;11813;50.834;4.280;2023-08-06T09:06:04;15.50;99.90
23289;DHT22;11813;50.834;4.280;2023-08-06T09:08:34;15.40;99.90
23289;DHT22;11813;50.834;4.280;2023-08-06T09:11:02;15.40;99.90
23289;DHT22;11813;50.834;4.280;2023-08-06T09:13:30;15.30;99.90
23289;DHT22;11813;50.834;4.280;2023-08-06T09:15:55;15.30;99.90
23289;DHT22;11813;50.834;4.280;2023-08-06T09:18:28;15.20;99.90
23289;DHT22;11813;50.834;4.280;2023-08-06T09:20:54;15.20;99.90
23289;DHT22;11813;50.834;4.280;2023-08-06T09:23:20;15.30;99.90
23289;DHT22;11813;50.834;4.280;2023-08-06T09:25:46;15.20;99.90
23289;DHT22;11813;50.834;4.280;2023-08-06T09:28:12;15.10;99.90
23289;DHT22;11813;50.834;4.280;2023-08-06T09:30:39;15.00;99.90
23289;DHT22;11813;50.834;4.280;2023-08-06T09:33:10;14.90;99.90
23289;DHT22;11813;50.834;4.280;2023-08-06T09:35:36;14.80;99.90
23289;DHT22;11813;50.834;4.280;2023-08-06T09:38:09;14.80;99.90
23289;DHT22;11813;50.834;4.280;2023-08-06T09:40:36;14.80;99.90
23289;DHT22;11813;50.834;4.280;2023-08-06T09:43:02;14.70;99.90
23289;DHT22;11813;50.834;4.280;2023-08-06T09:45:32;14.70;99.90
23289;DHT22;11813;50.834;4.280;2023-08-06T09:48:00;14.80;99.90
23289;DHT22;11813;50.834;4.280;2023-08-06T09:50:33;14.80;99.90
23289;DHT22;11813;50.834;4.280;2023-08-06T09:53:00;14.80;99.90
23289;DHT22;11813;50.834;4.280;2023-08-06T09:55:26;14.90;99.90
23289;DHT22;11813;50.834;4.280;2023-08-06T09:57:52;14.90;99.90
23289;DHT22;11813;50.834;4.280;2023-08-06T10:00:19;15.00;99.90
23289;DHT22;11813;50.834;4.280;2023-08-06T10:02:45;15.00;99.90
23289;DHT22;11813;50.834;4.280;2023-08-06T10:05:11;15.10;99.90
23289;DHT22;11813;50.834;4.280;2023-08-06T10:07:37;15.20;99.90
23289;DHT22;11813;50.834;4.280;2023-08-06T10:10:06;15.40;99.90
23289;DHT22;11813;50.834;4.280;2023-08-06T10:12:54;15.40;99.90
23289;DHT22;11813;50.834;4.280;2023-08-06T10:15:26;15.40;99.90
23289;DHT22;11813;50.834;4.280;2023-08-06T10:17:56;15.30;99.90
23289;DHT22;11813;50.834;4.280;2023-08-06T10:20:22;15.30;99.90
23289;DHT22;11813;50.834;4.280;2023-08-06T10:23:08;15.20;99.90
23289;DHT22;11813;50.834;4.280;2023-08-06T10:25:34;15.20;99.90
23289;DHT22;11813;50.834;4.280;2023-08-06T10:28:08;15.10;99.90
23289;DHT22;11813;50.834;4.280;2023-08-06T10:30:41;15.00;99.90
23289;DHT22;11813;50.834;4.280;2023-08-06T10:33:08;15.00;99.90
23289;DHT22;11813;50.834;4.280;2023-08-06T10:35:47;15.00;99.90
23289;DHT22;11813;50.834;4.280;2023-08-06T10:38:20;15.00;99.90
23289;DHT22;11813;50.834;4.280;2023-08-06T10:43:30;15.10;99.90
23289;DHT22;11813;50.834;4.280;2023-08-06T10:45:58;15.10;99.90
23289;DHT22;11813;50.834;4.280;2023-08-06T10:48:38;15.10;99.90
23289;DHT22;11813;50.834;4.280;2023-08-06T10:51:10;15.20;99.90
23289;DHT22;11813;50.834;4.280;2023-08-06T10:53:37;15.20;99.90
23289;DHT22;11813;50.834;4.280;2023-08-06T10:56:12;15.20;99.90
23289;DHT22;11813;50.834;4.280;2023-08-06T10:58:39;15.50;99.90
23289;DHT22;11813;50.834;4.280;2023-08-06T11:01:04;15.70;99.90
23289;DHT22;11813;50.834;4.280;2023-08-06T11:03:32;15.80;99.90
23289;DHT22;11813;50.834;4.280;2023-08-06T11:05:58;15.90;99.90
23289;DHT22;11813;50.834;4.280;2023-08-06T11:08:25;16.00;99.90
23289;DHT22;11813;50.834;4.280;2023-08-06T11:10:51;16.00;99.90
23289;DHT22;11813;50.834;4.280;2023-08-06T11:13:17;15.90;99.90
23289;DHT22;11813;50.834;4.280;2023-08-06T11:15:45;15.70;99.90
23289;DHT22;11813;50.834;4.280;2023-08-06T11:18:10;15.70;99.90
23289;DHT22;11813;50.834;4.280;2023-08-06T11:20:37;15.70;99.90
23289;DHT22;11813;50.834;4.280;2023-08-06T11:23:03;15.80;99.90
23289;DHT22;11813;50.834;4.280;2023-08-06T11:25:29;15.80;99.90
23289;DHT22;11813;50.834;4.280;2023-08-06T11:27:55;15.80;99.90
23289;DHT22;11813;50.834;4.280;2023-08-06T11:30:21;15.80;99.90
23289;DHT22;11813;50.834;4.280;2023-08-06T11:32:47;15.80;99.90
23289;DHT22;11813;50.834;4.280;2023-08-06T11:35:14;15.80;99.90
23289;DHT22;11813;50.834;4.280;2023-08-06T11:37:44;15.80;99.90
23289;DHT22;11813;50.834;4.280;2023-08-06T11:40:10;15.80;99.90
23289;DHT22;11813;50.834;4.280;2023-08-06T11:42:39;15.60;99.90
23289;DHT22;11813;50.834;4.280;2023-08-06T11:45:05;15.60;99.90
23289;DHT22;11813;50.834;4.280;2023-08-06T11:47:30;15.50;99.90
23289;DHT22;11813;50.834;4.280;2023-08-06T11:49:56;15.40;99.90
23289;DHT22;11813;50.834;4.280;2023-08-06T11:52:26;15.30;99.90
23289;DHT22;11813;50.834;4.280;2023-08-06T11:55:05;15.10;99.90
23289;DHT22;11813;50.834;4.280;2023-08-06T11:57:38;15.10;99.90
23289;DHT22;11813;50.834;4.280;2023-08-06T12:00:13;15.10;99.90
23289;DHT22;11813;50.834;4.280;2023-08-06T12:02:42;15.00;99.90
23289;DHT22;11813;50.834;4.280;2023-08-06T12:05:16;14.90;99.90
23289;DHT22;11813;50.834;4.280;2023-08-06T12:07:52;15.00;99.90
23289;DHT22;11813;50.834;4.280;2023-08-06T12:10:19;14.90;99.90
23289;DHT22;11813;50.834;4.280;2023-08-06T12:12:46;14.90;99.90
23289;DHT22;11813;50.834;4.280;2023-08-06T12:15:11;15.00;99.90
23289;DHT22;11813;50.834;4.280;2023-08-06T12:17:38;15.10;99.90
23289;DHT22;11813;50.834;4.280;2023-08-06T12:20:06;15.20;99.90
23289;DHT22;11813;50.834;4.280;2023-08-06T12:22:33;15.30;99.90
23289;DHT22;11813;50.834;4.280;2023-08-06T12:25:04;15.40;99.90
23289;DHT22;11813;50.834;4.280;2023-08-06T12:27:32;15.50;99.90
23289;DHT22;11813;50.834;4.280;2023-08-06T12:29:57;15.80;99.90
23289;DHT22;11813;50.834;4.280;2023-08-06T12:32:23;15.80;99.90
23289;DHT22;11813;50.834;4.280;2023-08-06T12:34:48;15.80;99.90
23289;DHT22;11813;50.834;4.280;2023-08-06T12:37:14;15.80;99.90
23289;DHT22;11813;50.834;4.280;2023-08-06T12:39:40;15.60;99.90
23289;DHT22;11813;50.834;4.280;2023-08-06T12:42:06;15.50;99.90
23289;DHT22;11813;50.834;4.280;2023-08-06T12:44:32;15.30;99.90
23289;DHT22;11813;50.834;4.280;2023-08-06T12:46:58;15.30;99.90
23289;DHT22;11813;50.834;4.280;2023-08-06T12:49:25;15.20;99.90
23289;DHT22;11813;50.834;4.280;2023-08-06T12:51:52;15.30;99.90
23289;DHT22;11813;50.834;4.280;2023-08-06T12:54:19;15.50;99.90
23289;DHT22;11813;50.834;4.280;2023-08-06T12:56:45;15.70;99.90
23289;DHT22;11813;50.834;4.280;2023-08-06T12:59:14;15.60;99.90
23289;DHT22;11813;50.834;4.280;2023-08-06T13:01:40;15.60;99.90
23289;DHT22;11813;50.834;4.280;2023-08-06T13:04:06;15.60;99.90
23289;DHT22;11813;50.834;4.280;2023-08-06T13:06:31;15.70;99.90
23289;DHT22;11813;50.834;4.280;2023-08-06T13:09:06;15.70;99.90
23289;DHT22;11813;50.834;4.280;2023-08-06T13:11:32;15.70;99.90
23289;DHT22;11813;50.834;4.280;2023-08-06T13:14:06;15.60;99.90
23289;DHT22;11813;50.834;4.280;2023-08-06T13:16:33;15.60;99.90
23289;DHT22;11813;50.834;4.280;2023-08-06T13:18:59;15.70;99.90
23289;DHT22;11813;50.834;4.280;2023-08-06T13:21:32;15.60;99.90
23289;DHT22;11813;50.834;4.280;2023-08-06T13:23:58;15.70;99.90
23289;DHT22;11813;50.834;4.280;2023-08-06T13:26:24;15.50;99.90
23289;DHT22;11813;50.834;4.280;2023-08-06T13:28:49;15.60;99.90
23289;DHT22;11813;50.834;4.280;2023-08-06T13:31:16;15.60;99.90
23289;DHT22;11813;50.834;4.280;2023-08-06T13:33:42;15.70;99.90
23289;DHT22;11813;50.834;4.280;2023-08-06T13:36:07;15.70;99.90
23289;DHT22;11813;50.834;4.280;2023-08-06T13:38:33;15.50;99.90
23289;DHT22;11813;50.834;4.280;2023-08-06T13:40:58;15.40;99.90
23289;DHT22;11813;50.834;4.280;2023-08-06T13:43:24;15.40;99.90
23289;DHT22;11813;50.834;4.280;2023-08-06T13:45:50;15.50;99.90
23289;DHT22;11813;50.834;4.280;2023-08-06T13:48:15;15.60;99.90
23289;DHT22;11813;50.834;4.280;2023-08-06T13:50:41;15.50;99.90
23289;DHT22;11813;50.834;4.280;2023-08-06T13:53:07;15.40;99.90
23289;DHT22;11813;50.834;4.280;2023-08-06T13:55:32;15.40;99.90
23289;DHT22;11813;50.834;4.280;2023-08-06T13:57:58;15.40;99.90
23289;DHT22;11813;50.834;4.280;2023-08-06T14:00:23;15.40;99.90
23289;DHT22;11813;50.834;4.280;2023-08-06T14:02:49;15.40;99.90
23289;DHT22;11813;50.834;4.280;2023-08-06T14:05:15;15.20;99.90
23289;DHT22;11813;50.834;4.280;2023-08-06T14:07:40;15.20;99.90
23289;DHT22;11813;50.834;4.280;2023-08-06T14:10:06;15.10;99.90
23289;DHT22;11813;50.834;4.280;2023-08-06T14:12:32;15.30;99.90
23289;DHT22;11813;50.834;4.280;2023-08-06T14:14:58;15.30;99.90
23289;DHT22;11813;50.834;4.280;2023-08-06T14:17:24;15.50;99.90
23289;DHT22;11813;50.834;4.280;2023-08-06T14:19:50;15.40;99.90
23289;DHT22;11813;50.834;4.280;2023-08-06T14:22:15;15.30;99.90
23289;DHT22;11813;50.834;4.280;2023-08-06T14:24:41;15.30;99.90
23289;DHT22;11813;50.834;4.280;2023-08-06T14:27:07;15.20;99.90
23289;DHT22;11813;50.834;4.280;2023-08-06T14:29:33;15.20;99.90
23289;DHT22;11813;50.834;4.280;2023-08-06T14:31:58;15.20;99.90
23289;DHT22;11813;50.834;4.280;2023-08-06T14:34:24;15.20;99.90
23289;DHT22;11813;50.834;4.280;2023-08-06T14:36:49;15.10;99.90
23289;DHT22;11813;50.834;4.280;2023-08-06T14:39:15;15.00;99.90
23289;DHT22;11813;50.834;4.280;2023-08-06T14:41:41;15.20;99.90
23289;DHT22;11813;50.834;4.280;2023-08-06T14:44:06;15.30;99.90
23289;DHT22;11813;50.834;4.280;2023-08-06T14:46:33;15.30;99.90
23289;DHT22;11813;50.834;4.280;2023-08-06T14:48:58;15.40;99.90
23289;DHT22;11813;50.834;4.280;2023-08-06T14:51:24;15.40;99.90
23289;DHT22;11813;50.834;4.280;2023-08-06T14:53:50;15.50;99.90
23289;DHT22;11813;50.834;4.280;2023-08-06T14:56:15;15.60;99.90
23289;DHT22;11813;50.834;4.280;2023-08-06T14:58:41;15.60;99.90
23289;DHT22;11813;50.834;4.280;2023-08-06T15:01:07;15.60;99.90
23289;DHT22;11813;50.834;4.280;2023-08-06T15:03:33;15.70;99.90
23289;DHT22;11813;50.834;4.280;2023-08-06T15:05:59;15.80;99.90
23289;DHT22;11813;50.834;4.280;2023-08-06T15:08:24;16.00;99.90
23289;DHT22;11813;50.834;4.280;2023-08-06T15:10:51;16.10;99.90
23289;DHT22;11813;50.834;4.280;2023-08-06T15:13:18;16.20;99.90
23289;DHT22;11813;50.834;4.280;2023-08-06T15:15:43;16.20;99.90
23289;DHT22;11813;50.834;4.280;2023-08-06T15:18:10;16.20;99.90
23289;DHT22;11813;50.834;4.280;2023-08-06T15:20:36;16.30;99.90
23289;DHT22;11813;50.834;4.280;2023-08-06T15:23:02;16.30;99.90
23289;DHT22;11813;50.834;4.280;2023-08-06T15:25:28;16.30;99.90
23289;DHT22;11813;50.834;4.280;2023-08-06T15:27:53;16.40;99.90
23289;DHT22;11813;50.834;4.280;2023-08-06T15:30:19;16.20;99.90
23289;DHT22;11813;50.834;4.280;2023-08-06T15:32:46;16.20;99.90
23289;DHT22;11813;50.834;4.280;2023-08-06T15:35:12;16.40;99.90
23289;DHT22;11813;50.834;4.280;2023-08-06T15:37:38;16.70;99.90